Indianapolis, Indiana
Traffic Map
Current Weather Conditions
Indianapolis, Indiana
Overcast Light Snow
Overcast
26°
Feels Like: 14°
Wind Chill: 14° Ceiling: 3000
Heat Index: 26° Visibility: 7mi
Dew Point: 20° Wind: 14mph
Humidity: 78% Direction: 290° (WNW)
Pressure: 30.38in Gusts: 0mph
Raw Report DataKIND 272354Z 29012KT 7SM -SN SCT019 BKN030 OVC036 M03/M07 A3038 RMK AO2 SLP297 P0000 60000 T10331067 11006 21033 51013
Traffic Incident Summary
Active as of:
Severity:
Category:
InformationThere was an issue retrieving the traffic information for this location. Please try a different location or try again shortly.
Advertisements
Track Severe Weather on mobile